Time;durP1;ratioP1;P1;durP2;ratioP2;P2;SDS_P1;SDS_P2;PMS_P1;PMS_P2;Temp;Humidity;BMP_temperature;BMP_pressure;BME280_temperature;BME280_humidity;BME280_pressure;Samples;Min_cycle;Max_cycle;Signal;HPM_P1;HPM_P2
2022/06/06 00:00:13;;;;;;;5.35;2.13;;;;;;;21.80;64.20;100649.75;4788009;29;20051;-72
2022/06/06 00:02:44;;;;;;;4.35;2.13;;;;;;;21.77;64.74;100644.91;4786285;29;20062;-72
2022/06/06 00:05:14;;;;;;;3.35;1.45;;;;;;;21.75;64.97;100645.25;4783161;29;20058;-72
2022/06/06 00:07:43;;;;;;;4.55;2.03;;;;;;;21.78;64.98;100643.75;4783521;29;20493;-71
2022/06/06 00:10:11;;;;;;;2.65;2.08;;;;;;;21.82;64.30;100633.50;4785034;29;20484;-72
2022/06/06 00:12:39;;;;;;;2.97;1.80;;;;;;;21.85;64.31;100635.56;4783123;29;20059;-71
2022/06/06 00:15:07;;;;;;;3.67;2.10;;;;;;;21.89;64.23;100630.09;4783707;29;20051;-71
2022/06/06 00:17:36;;;;;;;3.42;2.15;;;;;;;21.78;64.55;100627.03;4779726;29;20053;-71
2022/06/06 00:20:05;;;;;;;2.42;1.90;;;;;;;21.72;65.52;100634.84;4782838;29;20063;-71
2022/06/06 00:22:32;;;;;;;4.25;1.88;;;;;;;21.61;65.91;100630.91;4788328;29;20051;-71
2022/06/06 00:25:00;;;;;;;4.13;2.22;;;;;;;21.48;65.45;100632.94;4787154;29;20063;-71
2022/06/06 00:27:28;;;;;;;2.92;1.73;;;;;;;21.42;65.36;100637.13;4787919;29;20051;-72
2022/06/06 00:29:56;;;;;;;1.98;1.40;;;;;;;21.32;65.17;100635.66;4781352;29;20051;-71
2022/06/06 00:35:10;;;;;;;5.75;2.30;;;;;;;21.56;65.00;100643.09;4781021;29;20055;-72
2022/06/06 00:37:41;;;;;;;3.72;1.92;;;;;;;21.95;63.84;100648.16;4786260;29;20054;-72
2022/06/06 00:40:11;;;;;;;7.07;1.90;;;;;;;21.69;64.50;100649.44;4787623;29;20063;-72
2022/06/06 00:42:41;;;;;;;2.28;1.73;;;;;;;21.40;65.69;100651.38;4779696;29;20071;-72
2022/06/06 00:45:14;;;;;;;4.93;2.22;;;;;;;21.19;66.52;100649.59;4779165;29;20392;-72
2022/06/06 00:47:44;;;;;;;1.80;1.70;;;;;;;21.06;67.71;100653.53;4786941;29;20540;-72
2022/06/06 00:50:16;;;;;;;1.98;1.70;;;;;;;21.19;67.04;100657.94;4782555;29;20056;-72
2022/06/06 00:52:47;;;;;;;2.55;1.83;;;;;;;21.09;67.74;100655.66;4799873;29;20051;-72
2022/06/06 00:55:25;;;;;;;3.85;2.25;;;;;;;21.05;67.75;100652.75;4796315;29;20071;-72
2022/06/06 00:58:00;;;;;;;3.05;2.10;;;;;;;21.00;68.07;100649.38;4787225;29;20039;-72
2022/06/06 01:00:28;;;;;;;4.80;2.08;;;;;;;20.94;68.89;100646.88;4787215;29;20059;-72
2022/06/06 01:03:00;;;;;;;5.30;2.40;;;;;;;20.95;68.64;100644.88;4780170;29;20059;-72
2022/06/06 01:05:28;;;;;;;3.85;2.20;;;;;;;21.08;68.57;100654.81;4778307;29;20055;-72
2022/06/06 01:07:56;;;;;;;3.60;2.13;;;;;;;21.08;68.55;100654.81;4783889;29;20407;-72
2022/06/06 01:10:24;;;;;;;3.38;2.13;;;;;;;21.04;68.30;100655.88;4782181;29;20059;-72
2022/06/06 01:12:55;;;;;;;3.30;1.90;;;;;;;21.05;66.64;100657.50;4787422;29;20051;-72
2022/06/06 01:15:29;;;;;;;2.75;1.70;;;;;;;21.01;66.55;100656.59;4786956;29;20115;-72
2022/06/06 01:18:05;;;;;;;3.17;1.50;;;;;;;20.99;66.44;100654.16;4784926;29;20077;-72
2022/06/06 01:21:07;;;;;;;4.28;2.13;;;;;;;20.94;66.18;100655.22;4773486;29;20055;-71
2022/06/06 01:23:53;;;;;;;2.03;1.83;;;;;;;20.95;65.14;100647.66;4782258;29;20063;-72
2022/06/06 01:26:47;;;;;;;4.07;1.60;;;;;;;20.98;65.16;100651.72;4785260;29;20058;-72
2022/06/06 01:29:32;;;;;;;4.63;1.75;;;;;;;20.98;65.01;100638.63;4787043;29;20067;-72
2022/06/06 01:32:08;;;;;;;4.50;1.90;;;;;;;21.04;65.47;100645.56;4783202;29;20420;-72
2022/06/06 01:34:42;;;;;;;6.18;1.80;;;;;;;21.06;65.53;100639.63;4781827;29;20051;-72
2022/06/06 01:37:43;;;;;;;3.70;2.17;;;;;;;21.23;64.55;100637.75;4776882;29;20067;-72
2022/06/06 01:40:14;;;;;;;3.88;1.58;;;;;;;21.26;64.05;100640.63;4781687;29;20055;-72
2022/06/06 01:42:48;;;;;;;2.25;1.90;;;;;;;21.32;63.42;100644.00;4792639;29;20051;-72
2022/06/06 01:45:23;;;;;;;6.07;2.08;;;;;;;21.28;62.58;100637.50;4792902;29;20047;-72
2022/06/06 01:47:57;;;;;;;4.07;2.63;;;;;;;21.31;62.79;100636.81;4792692;29;20055;-72
2022/06/06 01:50:25;;;;;;;3.08;2.20;;;;;;;21.31;63.48;100636.81;4792890;29;20059;-72
2022/06/06 01:52:57;;;;;;;4.35;2.10;;;;;;;21.30;62.88;100646.31;4795799;29;20051;-72
2022/06/06 01:55:27;;;;;;;5.03;2.25;;;;;;;21.24;62.73;100637.41;4800388;29;20079;-72
2022/06/06 01:58:00;;;;;;;8.15;2.17;;;;;;;21.24;63.54;100631.03;4790928;29;20051;-72
2022/06/06 02:00:29;;;;;;;1.85;1.65;;;;;;;21.31;62.13;100636.81;4790971;29;20067;-72
2022/06/06 02:02:58;;;;;;;2.55;1.77;;;;;;;21.26;61.64;100632.28;4792462;29;20055;-72
2022/06/06 02:05:26;;;;;;;5.00;2.33;;;;;;;21.19;61.51;100624.56;4792588;29;20051;-72
2022/06/06 02:07:55;;;;;;;3.03;1.50;;;;;;;21.11;61.39;100621.91;4792480;29;20443;-72
2022/06/06 02:10:24;;;;;;;5.40;1.95;;;;;;;21.10;61.42;100621.09;4790991;29;20055;-72
2022/06/06 02:12:52;;;;;;;1.50;1.38;;;;;;;21.05;61.54;100624.09;4792773;29;20047;-72
2022/06/06 02:15:23;;;;;;;3.55;1.55;;;;;;;21.00;62.67;100625.16;4792352;29;20070;-72
2022/06/06 02:17:53;;;;;;;2.17;1.33;;;;;;;21.02;62.40;100630.38;4782842;29;20051;-72
2022/06/06 02:20:25;;;;;;;5.15;2.00;;;;;;;20.96;62.75;100631.78;4789063;29;20066;-72
2022/06/06 02:22:53;;;;;;;3.08;1.73;;;;;;;20.96;63.01;100635.38;4792542;29;20055;-72
2022/06/06 02:25:22;;;;;;;2.65;1.83;;;;;;;20.94;63.59;100632.97;4792481;29;20407;-72
2022/06/06 02:27:51;;;;;;;5.88;2.05;;;;;;;20.90;63.37;100629.25;4792439;29;20047;-72
2022/06/06 02:30:22;;;;;;;3.35;1.83;;;;;;;20.84;64.00;100635.34;4792343;29;20530;-72
2022/06/06 02:32:50;;;;;;;3.17;1.83;;;;;;;20.96;63.86;100648.47;4792502;29;20051;-72
2022/06/06 02:35:27;;;;;;;1.70;1.40;;;;;;;21.19;63.22;100652.38;4792549;29;20086;-72
2022/06/06 02:37:56;;;;;;;1.40;1.30;;;;;;;21.16;63.33;100653.06;4792378;29;20395;-72
2022/06/06 02:40:26;;;;;;;3.88;2.20;;;;;;;21.10;63.82;100654.47;4792496;29;20388;-72
2022/06/06 02:42:54;;;;;;;4.18;1.75;;;;;;;20.82;64.89;100649.59;4779807;29;20495;-72
2022/06/06 02:45:22;;;;;;;4.88;1.65;;;;;;;20.55;66.40;100651.94;4792286;29;20051;-72
2022/06/06 02:47:54;;;;;;;2.45;2.00;;;;;;;20.40;68.07;100654.22;4790543;29;20051;-72
2022/06/06 02:50:25;;;;;;;3.42;2.13;;;;;;;20.32;68.63;100662.69;4789546;29;20070;-72
2022/06/06 02:52:53;;;;;;;3.88;2.15;;;;;;;20.25;69.14;100661.25;4792486;29;20498;-72
2022/06/06 02:55:21;;;;;;;3.15;2.55;;;;;;;20.23;69.29;100654.47;4800605;29;20407;-71
2022/06/06 02:57:51;;;;;;;3.95;2.20;;;;;;;20.27;69.22;100658.16;4776665;29;20052;-72
2022/06/06 03:00:26;;;;;;;5.22;3.38;;;;;;;20.22;69.78;100655.59;4771301;29;20079;-71
2022/06/06 03:02:54;;;;;;;4.95;2.33;;;;;;;20.29;69.40;100655.84;4799264;29;20826;-72
2022/06/06 03:05:34;;;;;;;4.32;2.17;;;;;;;20.51;69.07;100657.38;4779929;29;20403;-72
2022/06/06 03:08:18;;;;;;;3.17;2.33;;;;;;;20.73;68.31;100652.50;4777453;29;20071;-72
2022/06/06 03:11:02;;;;;;;3.38;2.42;;;;;;;20.42;69.33;100656.66;4800058;29;20047;-72
2022/06/06 03:13:39;;;;;;;3.60;2.17;;;;;;;20.12;70.09;100662.41;4788880;29;20052;-72
2022/06/06 03:22:55;;;;;;;2.47;2.13;;;;;;;19.79;72.00;100649.31;4789001;29;20415;-72
2022/06/06 03:25:38;;;;;;;4.10;2.80;;;;;;;19.65;73.04;100663.50;4778831;29;20056;-71
2022/06/06 03:28:43;;;;;;;3.33;2.75;;;;;;;19.46;74.06;100659.25;4779458;29;20396;-71
2022/06/06 03:31:33;;;;;;;5.47;2.78;;;;;;;19.46;73.74;100660.03;4777612;29;20070;-72
2022/06/06 03:34:19;;;;;;;4.20;2.53;;;;;;;19.79;72.43;100660.44;4788732;29;20056;-72
2022/06/06 03:37:12;;;;;;;9.30;3.30;;;;;;;19.87;72.10;100663.13;4788476;29;20083;-71
2022/06/06 03:39:50;;;;;;;3.63;2.95;;;;;;;19.92;72.07;100670.41;4787297;29;20384;-71
2022/06/06 03:42:44;;;;;;;4.55;2.67;;;;;;;19.83;72.97;100666.91;4787007;29;20066;-71
2022/06/06 03:45:30;;;;;;;3.15;2.60;;;;;;;19.72;73.52;100683.19;4780087;29;20407;-71
2022/06/06 03:48:07;;;;;;;3.45;2.38;;;;;;;19.58;73.96;100687.06;4788431;29;20055;-71
2022/06/06 03:51:11;;;;;;;4.28;2.38;;;;;;;19.50;74.59;100687.13;4788259;29;20079;-71
2022/06/06 03:54:03;;;;;;;6.17;2.97;;;;;;;19.51;74.80;100688.75;4780619;29;20063;-71
2022/06/06 03:56:58;;;;;;;4.07;2.88;;;;;;;19.50;74.64;100692.69;4788039;29;20082;-71
2022/06/06 03:59:27;;;;;;;;;;;;;;;19.72;73.82;100688.72;4787520;29;20090;-71
2022/06/06 04:02:03;;;;;;;5.72;3.05;;;;;;;19.85;72.76;100695.97;4788205;29;19925;-72
2022/06/06 04:04:32;;;;;;;5.63;3.03;;;;;;;19.88;73.15;100691.69;4788040;29;20058;-71
2022/06/06 04:07:02;;;;;;;6.97;3.33;;;;;;;19.77;73.69;100696.03;4787982;29;20067;-71
2022/06/06 04:09:32;;;;;;;7.13;3.35;;;;;;;19.91;72.96;100692.97;4781681;29;20060;-71
2022/06/06 04:12:34;;;;;;;3.20;2.85;;;;;;;19.83;73.34;100703.00;4787067;29;20047;-71
2022/06/06 04:15:33;;;;;;;3.22;2.95;;;;;;;19.80;73.14;100696.16;4785216;29;20063;-71
2022/06/06 04:18:16;;;;;;;3.50;3.10;;;;;;;19.77;73.60;100707.97;4787713;29;20063;-71
2022/06/06 04:20:56;;;;;;;2.72;2.40;;;;;;;19.95;72.74;100697.50;4787767;29;20055;-71
2022/06/06 04:23:57;;;;;;;3.72;2.42;;;;;;;19.93;72.37;100699.00;4787948;29;20055;-72
2022/06/06 04:26:41;;;;;;;4.40;2.60;;;;;;;20.21;70.87;100699.25;4784487;29;20067;-72
2022/06/06 04:29:26;;;;;;;5.85;1.95;;;;;;;20.42;69.83;100695.56;4781431;29;20051;-72
2022/06/06 04:31:59;;;;;;;;;;;;;;;20.56;69.22;100705.56;4787623;29;20051;-72
2022/06/06 04:34:39;;;;;;;3.28;1.95;;;;;;;20.65;69.26;100707.09;4775834;29;20325;-71
2022/06/06 04:37:09;;;;;;;3.95;1.90;;;;;;;20.55;68.94;100699.19;4778219;29;20072;-72
2022/06/06 04:40:16;;;;;;;2.05;1.88;;;;;;;20.62;68.43;100699.44;4787233;29;20058;-72
2022/06/06 04:42:57;;;;;;;6.22;1.92;;;;;;;20.66;68.66;100700.38;4772885;29;20055;-71
2022/06/06 04:45:38;;;;;;;3.70;1.83;;;;;;;20.70;68.54;100694.09;4790707;29;20595;-71
2022/06/06 04:48:07;;;;;;;4.90;2.78;;;;;;;21.12;67.60;100699.44;4761078;30;20059;-81
2022/06/06 04:50:40;;;;;;;2.55;1.98;;;;;;;21.54;65.55;100701.13;4769565;29;20047;-81
2022/06/06 04:53:12;;;;;;;2.27;1.50;;;;;;;21.82;64.11;100707.91;4771478;29;20530;-81
2022/06/06 04:55:42;;;;;;;4.97;2.25;;;;;;;21.86;64.28;100711.59;4771525;30;20309;-80
2022/06/06 04:58:12;;;;;;;4.88;2.30;;;;;;;21.86;63.88;100706.03;4761186;30;20066;-81
2022/06/06 05:00:42;;;;;;;2.67;1.77;;;;;;;21.95;63.98;100709.47;4785754;29;20062;-80
2022/06/06 05:03:10;;;;;;;4.90;1.90;;;;;;;22.17;62.82;100698.91;4787362;29;20055;-80
2022/06/06 05:05:52;;;;;;;3.08;1.92;;;;;;;22.39;61.68;100703.06;4787072;29;20404;-80
2022/06/06 05:08:43;;;;;;;4.75;2.10;;;;;;;22.49;60.99;100706.50;4783166;29;20048;-79
2022/06/06 05:11:37;;;;;;;1.48;1.38;;;;;;;22.50;61.17;100711.72;4779704;29;20074;-79
2022/06/06 05:14:21;;;;;;;3.17;1.70;;;;;;;22.54;61.13;100720.22;4782132;29;20052;-80
2022/06/06 05:17:25;;;;;;;5.43;2.60;;;;;;;22.53;60.99;100726.97;4782348;29;20060;-80
2022/06/06 05:20:38;;;;;;;2.67;2.13;;;;;;;22.71;60.94;100737.75;4774981;30;20511;-80
2022/06/06 05:23:25;;;;;;;6.32;2.70;;;;;;;22.78;60.71;100744.31;4764744;30;20508;-81
2022/06/06 05:26:24;;;;;;;6.35;2.70;;;;;;;22.98;61.16;100735.22;4773734;29;20510;-80
2022/06/06 05:29:13;;;;;;;4.00;2.20;;;;;;;23.05;60.60;100741.81;4786165;29;20051;-81
2022/06/06 05:32:12;;;;;;;4.50;2.10;;;;;;;23.15;60.06;100750.78;4786308;29;20050;-81
2022/06/06 05:34:56;;;;;;;3.88;1.60;;;;;;;23.19;59.94;100752.50;4789195;29;20047;-81
2022/06/06 05:37:50;;;;;;;2.22;1.83;;;;;;;23.27;56.08;100747.88;4787726;29;20047;-81
2022/06/06 05:40:36;;;;;;;2.43;1.57;;;;;;;23.42;54.26;100748.25;4786752;29;20063;-81
2022/06/06 05:43:12;;;;;;;3.78;1.33;;;;;;;23.52;54.18;100747.69;4786127;29;20301;-78
2022/06/06 05:46:09;;;;;;;3.35;1.50;;;;;;;23.67;54.18;100750.78;4779061;29;20051;-78
2022/06/06 05:48:49;;;;;;;2.15;1.50;;;;;;;23.73;54.23;100749.31;4779663;29;20415;-75
2022/06/06 05:51:29;;;;;;;1.75;1.58;;;;;;;23.68;54.53;100755.19;4783691;29;20552;-75
2022/06/06 05:54:02;;;;;;;2.10;1.52;;;;;;;23.97;54.26;100753.81;4786783;29;20062;-75
2022/06/06 05:56:55;;;;;;;3.58;2.15;;;;;;;24.03;54.34;100754.31;4783819;29;20054;-75
2022/06/06 05:59:59;;;;;;;2.05;1.85;;;;;;;24.20;54.66;100757.84;4786738;29;20051;-75
2022/06/06 06:02:39;;;;;;;4.68;2.55;;;;;;;24.31;54.53;100769.25;4785984;29;20051;-75
2022/06/06 06:05:21;;;;;;;4.15;1.95;;;;;;;24.27;52.87;100769.16;4784855;29;20503;-76
2022/06/06 06:08:08;;;;;;;5.85;2.78;;;;;;;24.32;53.35;100770.84;4786747;29;20499;-75
2022/06/06 06:11:00;;;;;;;2.88;2.15;;;;;;;24.46;53.64;100773.13;4774059;29;20055;-75
2022/06/06 06:13:59;;;;;;;4.70;2.63;;;;;;;24.58;52.64;100781.31;4786414;29;20055;-75
2022/06/06 06:16:31;;;;;;;5.85;2.40;;;;;;;24.70;51.85;100785.94;4786507;29;20052;-75
2022/06/06 06:19:08;;;;;;;3.63;2.17;;;;;;;24.54;51.76;100786.84;4785199;29;20063;-75
2022/06/06 06:21:44;;;;;;;5.60;3.10;;;;;;;24.54;51.85;100781.25;4786413;29;20055;-75
2022/06/06 06:24:19;;;;;;;6.18;2.25;;;;;;;24.74;51.14;100780.41;4788868;29;20063;-75
2022/06/06 06:26:48;;;;;;;2.25;1.63;;;;;;;24.68;50.84;100782.72;4788284;29;20060;-75
2022/06/06 06:29:21;;;;;;;2.70;1.80;;;;;;;24.76;50.85;100775.25;4789858;29;20043;-75
2022/06/06 06:32:16;;;;;;;1.95;1.63;;;;;;;24.76;50.16;100775.25;4789761;29;20051;-75
2022/06/06 06:35:07;;;;;;;2.55;1.67;;;;;;;24.73;50.13;100776.00;4789975;29;20059;-75
2022/06/06 06:38:12;;;;;;;5.15;1.90;;;;;;;24.90;50.25;100771.91;4789272;29;20089;-75
2022/06/06 06:41:00;;;;;;;2.13;1.67;;;;;;;24.95;50.63;100775.22;4789464;29;20396;-75
2022/06/06 06:43:47;;;;;;;2.15;1.05;;;;;;;25.17;47.75;100789.53;4789147;29;20491;-76
2022/06/06 06:46:26;;;;;;;2.05;1.23;;;;;;;25.00;47.71;100781.66;4794391;29;20383;-75
2022/06/06 06:49:41;;;;;;;2.08;1.58;;;;;;;25.25;47.63;100781.25;4795535;29;20066;-75
2022/06/06 06:52:33;;;;;;;2.50;1.42;;;;;;;25.32;47.85;100792.59;4772739;29;20047;-75
2022/06/06 06:55:16;;;;;;;2.15;1.38;;;;;;;25.46;47.27;100794.78;4778646;29;20051;-75
2022/06/06 06:57:56;;;;;;;2.55;1.30;;;;;;;25.50;46.98;100796.44;4789279;29;20535;-75
2022/06/06 07:00:24;;;;;;;2.55;1.23;;;;;;;25.65;46.75;100801.50;4789159;29;20058;-75
2022/06/06 07:08:32;;;;;;;4.25;1.25;;;;;;;25.71;47.33;100802.78;4789061;29;20051;-76
2022/06/06 07:10:02;;;;;;;2.03;1.23;;;;;;;25.75;47.93;100809.22;4781784;29;20059;-75
2022/06/06 07:13:21;;;;;;;4.13;1.42;;;;;;;25.58;49.63;100816.19;4778148;29;20051;-75
2022/06/06 07:15:54;;;;;;;2.72;1.38;;;;;;;25.84;49.07;100814.53;4780888;29;20066;-75
2022/06/06 07:18:30;;;;;;;2.92;1.90;;;;;;;25.95;48.69;100800.69;4788815;29;20414;-75
2022/06/06 07:21:01;;;;;;;5.72;2.10;;;;;;;26.21;48.89;100808.22;4789201;29;20495;-75
2022/06/06 07:23:33;;;;;;;2.58;1.70;;;;;;;26.09;49.15;100811.28;4788829;29;20496;-75
2022/06/06 07:26:03;;;;;;;3.65;1.60;;;;;;;26.19;48.96;100804.97;4787290;29;20062;-75
2022/06/06 07:28:31;;;;;;;1.88;1.50;;;;;;;26.22;49.77;100814.63;4789067;29;20059;-75
2022/06/06 07:31:22;;;;;;;2.08;1.75;;;;;;;26.34;49.27;100805.19;4775727;29;20522;-75
2022/06/06 07:34:15;;;;;;;7.55;1.92;;;;;;;26.46;49.40;100807.72;4788275;29;20507;-75
2022/06/06 07:36:54;;;;;;;3.17;1.65;;;;;;;26.63;48.44;100808.28;4788875;29;20399;-75
2022/06/06 07:39:41;;;;;;;4.10;1.73;;;;;;;26.69;48.22;100801.13;4788430;29;20059;-75
2022/06/06 07:42:30;;;;;;;3.60;1.48;;;;;;;26.75;48.11;100804.38;4788504;29;20067;-75
2022/06/06 07:45:19;;;;;;;2.85;1.25;;;;;;;26.83;48.52;100809.66;4788450;29;20416;-76
2022/06/06 07:48:21;;;;;;;2.88;1.52;;;;;;;26.88;48.69;100810.53;4788412;29;20411;-77
2022/06/06 07:51:12;;;;;;;1.30;1.20;;;;;;;26.84;48.67;100811.28;4788386;29;20066;-76
2022/06/06 07:53:58;;;;;;;2.60;1.50;;;;;;;27.16;49.09;100804.34;4788350;29;20407;-76
2022/06/06 07:57:11;;;;;;;4.97;1.60;;;;;;;27.34;47.78;100804.50;4788535;29;20074;-76
2022/06/06 08:00:06;;;;;;;5.68;1.55;;;;;;;27.37;49.05;100811.34;4773899;29;20055;-76
2022/06/06 08:03:15;;;;;;;4.28;1.50;;;;;;;27.54;49.19;100812.66;4786946;29;20051;-76
2022/06/06 08:05:49;;;;;;;3.92;1.75;;;;;;;27.54;49.85;100823.88;4788186;29;20051;-75
2022/06/06 08:08:17;;;;;;;;;;;;;;;27.51;50.55;100813.41;4788412;29;20415;-76
2022/06/06 08:10:47;;;;;;;5.82;2.10;;;;;;;27.52;50.41;100814.22;4788080;29;19925;-76
2022/06/06 08:13:42;;;;;;;4.55;2.28;;;;;;;27.83;50.40;100817.63;4787494;29;20055;-75
2022/06/06 08:16:42;;;;;;;7.93;2.10;;;;;;;27.60;49.58;100816.72;4788172;29;20051;-76
2022/06/06 08:19:33;;;;;;;8.73;2.83;;;;;;;27.57;50.26;100827.91;4787851;29;20396;-75
2022/06/06 08:22:02;;;;;;;3.92;2.08;;;;;;;27.49;50.97;100816.63;4787684;29;20411;-75
2022/06/06 08:24:35;;;;;;;2.22;2.00;;;;;;;27.56;51.90;100818.66;4787913;29;20078;-77
2022/06/06 08:27:27;;;;;;;4.80;1.95;;;;;;;27.53;50.75;100808.22;4788004;29;20063;-76
2022/06/06 08:29:54;;;;;;;5.72;1.90;;;;;;;27.67;49.17;100820.78;4787817;29;20062;-76
2022/06/06 08:32:22;;;;;;;2.45;1.70;;;;;;;28.01;47.77;100817.75;4787518;29;20054;-75
2022/06/06 08:34:50;;;;;;;5.63;1.70;;;;;;;28.03;46.94;100813.34;4787689;29;20047;-75
2022/06/06 08:37:43;;;;;;;9.93;2.40;;;;;;;28.07;46.86;100816.16;4787057;29;20058;-77
2022/06/06 08:40:35;;;;;;;6.47;1.85;;;;;;;28.13;46.22;100831.44;4787508;29;20051;-76
2022/06/06 08:43:33;;;;;;;8.57;2.17;;;;;;;28.01;46.24;100818.53;4776034;29;20051;-76
2022/06/06 08:46:16;;;;;;;2.13;1.40;;;;;;;28.03;45.60;100821.78;4786529;29;20059;-77
2022/06/06 08:48:52;;;;;;;2.90;1.40;;;;;;;28.20;45.22;100818.59;4787454;29;20063;-76
2022/06/06 08:51:23;;;;;;;4.00;1.70;;;;;;;28.28;45.18;100812.63;4787297;29;20055;-76
2022/06/06 08:54:15;;;;;;;2.92;1.23;;;;;;;28.09;45.86;100815.75;4787319;29;20388;-77
2022/06/06 08:57:26;;;;;;;2.05;1.60;;;;;;;27.98;46.11;100824.97;4776291;29;20499;-76
2022/06/06 09:00:18;;;;;;;4.32;1.38;;;;;;;28.23;45.29;100829.91;4787098;29;20063;-77
2022/06/06 09:03:38;;;;;;;3.53;1.50;;;;;;;28.21;45.60;100820.22;4787122;29;20407;-76
2022/06/06 09:06:32;;;;;;;1.50;1.38;;;;;;;28.38;45.39;100825.13;4786894;29;20059;-76
2022/06/06 09:09:42;;;;;;;2.88;1.73;;;;;;;28.39;44.69;100823.13;4775626;29;20066;-76
2022/06/06 09:12:19;;;;;;;2.03;1.33;;;;;;;28.39;44.31;100825.94;4786973;29;20063;-77
2022/06/06 09:15:17;;;;;;;2.08;1.33;;;;;;;28.45;44.28;100821.53;4787045;29;20062;-76
2022/06/06 09:17:45;;;;;;;1.98;1.30;;;;;;;28.40;43.81;100822.72;4777434;29;20055;-76
2022/06/06 09:20:47;;;;;;;2.25;1.55;;;;;;;28.49;43.05;100819.50;4787169;29;20059;-77
2022/06/06 09:23:27;;;;;;;2.30;1.38;;;;;;;28.52;43.63;100809.47;4786961;29;20147;-76
2022/06/06 09:26:00;;;;;;;1.58;1.13;;;;;;;28.93;42.41;100808.34;4774797;29;20052;-76
2022/06/06 09:29:19;;;;;;;1.33;1.17;;;;;;;29.09;40.98;100816.41;4787039;29;20070;-76
2022/06/06 09:32:14;;;;;;;4.80;1.55;;;;;;;28.94;41.99;100822.00;4781834;29;20419;-77
2022/06/06 09:35:19;;;;;;;3.53;1.50;;;;;;;28.82;42.34;100820.38;4776314;29;20058;-77
2022/06/06 09:38:11;;;;;;;3.60;1.60;;;;;;;28.92;42.65;100815.16;4786658;29;20511;-80
2022/06/06 09:40:45;;;;;;;1.45;1.20;;;;;;;28.83;42.15;100821.97;4769830;29;20063;-80
2022/06/06 09:43:24;;;;;;;1.27;1.10;;;;;;;28.84;42.88;100809.50;4752715;30;20064;-80
2022/06/06 09:46:21;;;;;;;1.48;1.17;;;;;;;28.86;42.47;100811.97;4778875;29;20054;-80
2022/06/06 09:49:14;;;;;;;1.73;1.50;;;;;;;28.89;43.52;100816.00;4753278;30;20071;-81
2022/06/06 09:52:12;;;;;;;4.18;1.67;;;;;;;28.99;43.88;100815.19;4770781;29;20065;-81
2022/06/06 10:00:56;;;;;;;2.17;1.98;;;;;;;29.16;43.42;100796.66;4773627;30;20063;-81
2022/06/06 10:04:03;;;;;;;3.58;1.98;;;;;;;29.20;44.12;100803.09;4772718;30;20380;-81
2022/06/06 10:06:58;;;;;;;3.17;2.03;;;;;;;29.31;43.52;100813.53;4738087;29;20052;-82
2022/06/06 10:09:47;;;;;;;2.17;1.80;;;;;;;29.30;43.79;100795.03;4758278;29;20059;-80
2022/06/06 10:12:37;;;;;;;7.15;2.20;;;;;;;29.34;43.68;100793.00;4774191;30;20058;-81
2022/06/06 10:15:19;;;;;;;3.25;1.73;;;;;;;29.46;43.74;100803.84;4757370;29;20052;-80
2022/06/06 10:18:06;;;;;;;2.45;1.75;;;;;;;29.47;42.97;100794.19;4788122;29;20055;-81
2022/06/06 10:21:10;;;;;;;2.00;1.90;;;;;;;29.56;42.58;100782.50;4769247;30;20411;-81
2022/06/06 10:23:41;;;;;;;4.00;1.55;;;;;;;29.69;42.68;100791.34;4770460;29;20051;-80
2022/06/06 10:26:30;;;;;;;3.40;1.85;;;;;;;29.61;41.67;100784.94;4769866;30;20071;-80
2022/06/06 10:29:09;;;;;;;1.50;1.40;;;;;;;29.65;41.62;100787.72;4757730;30;20055;-79
2022/06/06 10:31:53;;;;;;;3.88;1.58;;;;;;;29.59;41.28;100783.72;4780810;29;20052;-79
2022/06/06 10:35:02;;;;;;;2.15;1.58;;;;;;;29.67;40.50;100779.69;4759845;30;20419;-81
2022/06/06 10:37:45;;;;;;;4.05;1.27;;;;;;;30.01;40.46;100770.66;4722356;29;20420;-79
2022/06/06 10:40:29;;;;;;;2.42;1.40;;;;;;;29.99;38.82;100767.44;4756306;30;20067;-80
2022/06/06 10:43:12;;;;;;;1.73;1.48;;;;;;;29.82;39.11;100773.97;4785990;29;20047;-80
2022/06/06 10:45:48;;;;;;;5.38;1.52;;;;;;;29.97;39.87;100767.06;4755615;29;20067;-80
2022/06/06 10:48:22;;;;;;;1.10;1.00;;;;;;;29.93;38.84;100760.63;4762171;30;20051;-79
2022/06/06 10:54:31;;;;;;;1.58;1.30;;;;;;;30.21;39.39;100758.91;4781863;29;20436;-80
2022/06/06 10:57:17;;;;;;;3.33;1.67;;;;;;;30.48;39.17;100752.66;4767466;30;20062;-83
2022/06/06 10:59:51;;;;;;;3.13;1.40;;;;;;;30.62;38.46;100754.59;4760768;30;20054;-81
2022/06/06 11:02:28;;;;;;;2.58;1.50;;;;;;;30.73;38.45;100748.88;4755246;30;20063;-82
2022/06/06 11:05:24;;;;;;;1.30;1.20;;;;;;;30.78;38.67;100761.75;4785592;29;20469;-82
2022/06/06 11:08:30;;;;;;;4.30;1.50;;;;;;;30.80;38.45;100762.94;4769735;30;20093;-81
2022/06/06 11:11:13;;;;;;;2.60;1.27;;;;;;;30.76;37.93;100750.06;4782248;29;20526;-81
2022/06/06 11:14:08;;;;;;;2.17;1.45;;;;;;;30.55;39.12;100754.66;4754097;29;20048;-80
2022/06/06 11:16:42;;;;;;;2.00;1.30;;;;;;;30.68;37.94;100766.22;4747447;30;20054;-81
2022/06/06 11:19:16;;;;;;;3.42;1.40;;;;;;;30.67;37.30;100756.16;4797693;29;20060;-81
2022/06/06 11:22:31;;;;;;;3.72;1.25;;;;;;;30.60;37.92;100759.84;4762768;30;20530;-80
2022/06/06 11:25:07;;;;;;;;;;;;;;;30.80;37.66;100754.44;4779548;29;20059;-80
2022/06/06 11:27:50;;;;;;;3.50;1.45;;;;;;;30.58;38.01;100757.44;4752148;30;19934;-82
2022/06/06 11:30:24;;;;;;;1.87;1.33;;;;;;;30.67;37.33;100747.69;4766019;29;20059;-81
2022/06/06 11:33:04;;;;;;;1.80;1.30;;;;;;;31.02;36.04;100748.63;4767933;30;20309;-80
2022/06/06 11:35:56;;;;;;;4.00;1.35;;;;;;;30.83;37.58;100742.34;4769064;29;20062;-79
2022/06/06 11:38:49;;;;;;;2.08;1.40;;;;;;;31.07;37.11;100756.66;4777725;29;20055;-79
2022/06/06 11:41:48;;;;;;;3.10;1.20;;;;;;;31.08;36.08;100749.75;4768577;30;20070;-78
2022/06/06 11:44:41;;;;;;;4.60;1.67;;;;;;;31.05;35.66;100742.13;4758412;29;20051;-80
2022/06/06 11:47:49;;;;;;;1.42;1.23;;;;;;;31.02;35.37;100754.25;4764371;30;20051;-79
2022/06/06 11:50:35;;;;;;;1.02;0.90;;;;;;;31.03;34.97;100755.88;4749153;30;20066;-85
2022/06/06 11:53:23;;;;;;;1.38;1.27;;;;;;;31.29;35.18;100747.97;4779917;29;20059;-79
2022/06/06 11:56:18;;;;;;;3.22;1.10;;;;;;;31.20;34.87;100747.63;4767279;29;20055;-79
2022/06/06 11:59:05;;;;;;;1.48;1.20;;;;;;;31.17;34.73;100746.44;4760874;30;20201;-80
2022/06/06 12:01:49;;;;;;;1.73;1.02;;;;;;;31.11;34.87;100737.63;4716169;30;20060;-81
2022/06/06 12:04:37;;;;;;;1.93;1.27;;;;;;;31.22;34.71;100745.19;4731273;30;20058;-79
2022/06/06 12:07:17;;;;;;;2.40;1.30;;;;;;;31.49;34.22;100733.22;4731723;30;20318;-80
2022/06/06 12:10:12;;;;;;;2.05;1.20;;;;;;;31.58;33.84;100741.19;4735791;30;20056;-80
2022/06/06 12:12:43;;;;;;;1.95;1.08;;;;;;;31.41;33.53;100757.16;4752512;30;20083;-81
2022/06/06 12:15:34;;;;;;;0.82;0.80;;;;;;;31.45;33.34;100747.41;4736624;30;20055;-80
2022/06/06 12:18:27;;;;;;;1.58;1.02;;;;;;;31.40;33.78;100730.06;4729441;30;20404;-81
2022/06/06 12:20:55;;;;;;;2.72;1.42;;;;;;;31.70;33.56;100732.16;4726946;30;20056;-81
2022/06/06 12:23:41;;;;;;;2.65;1.17;;;;;;;31.92;33.46;100723.41;4740634;30;20052;-81
2022/06/06 12:26:35;;;;;;;1.98;0.95;;;;;;;31.97;32.85;100731.44;4714983;30;20071;-80
2022/06/06 12:29:13;;;;;;;2.30;1.00;;;;;;;31.92;32.35;100717.75;4725566;30;20099;-80
2022/06/06 12:32:14;;;;;;;1.67;0.80;;;;;;;32.09;31.76;100730.03;4715533;30;20394;-80
2022/06/06 12:35:09;;;;;;;3.25;1.10;;;;;;;32.34;32.46;100730.91;4735575;30;20060;-80
2022/06/06 12:37:45;;;;;;;1.80;1.13;;;;;;;32.22;33.16;100718.13;4717258;30;20063;-80
2022/06/06 12:40:20;;;;;;;1.35;1.00;;;;;;;32.30;32.88;100728.13;4729399;30;20665;-81
2022/06/06 12:43:29;;;;;;;1.02;0.93;;;;;;;32.33;32.17;100709.44;4729915;30;20067;-79
2022/06/06 12:46:15;;;;;;;0.93;0.88;;;;;;;32.18;31.41;100702.00;4742461;30;20539;-81
2022/06/06 12:49:02;;;;;;;1.45;1.15;;;;;;;32.36;32.40;100700.09;4748102;29;20084;-81
2022/06/06 12:51:52;;;;;;;1.00;0.80;;;;;;;32.70;32.38;100694.28;4721795;30;21471;-80
2022/06/06 12:57:58;;;;;;;1.50;1.15;;;;;;;32.83;30.78;100696.50;4736183;30;20137;-79
2022/06/06 13:03:26;;;;;;;3.13;1.13;;;;;;;32.89;32.08;100683.44;4760875;30;20052;-81
2022/06/06 13:06:08;;;;;;;1.50;0.90;;;;;;;32.65;33.15;100677.78;4763726;29;20507;-80